岡山グライダークラブ活動状況掲示板あなたは無料カウンター人目の訪問者です

岡山グライダークラブ
岡山市浦安南町639-1 岡南飛行場
 使用機:シャイベ式 SF25C型 ファルケ   JA2330
      ヴァレンティン式17E型 タイフーン  JA2342
 練習日:毎日曜日  クラブルーム:電話 086-265-1810
この掲示板は岡山グライダークラブの活動状況をお知らせする掲示板です。
!!!この掲示板は投稿規制をしています。!!!
クラブ関連各種情報は 岡山グライダークラブクラブルーム      を       .
  ブリーフイング情報は  岡山グライダークラブブリーフィングルーム  をご覧下さい。 .
※写真はクリックすると拡大して見ることが出来ます。
岡南飛行場へのアクセス等は 岡南飛行場管理事務所 をご覧ください。
クラブの ホームページ ができました。

 
07月28日
by OGC at 2019/7/28(日) 22:42:45 No.20190728223844  削除コメント
1706 x 960 x 165,062バイト <この画像は大きいので別画面で表示します>
No.1

07月28日
本日の参加者
  会員      12名
  その他      0名


@本日の様子




METAR
RJBK 280000Z 09005KT 07KM FEW012CU SCT015CU BKN070AC 28/25 Q1013 A2992
RJOB 280000Z 11004KT 060V140 6000 FEW005 SCT010 BKN070 27/25 Q1014
RJOT 280000Z 01004KT 330V070 9999 FEW040 29/24 Q1014
RJOA 280000Z 11003KT 3000 BCFG BR FEW000 BKN015 BKN/// 24/22 Q1015
TAF
RJOB 272305Z 2800/2906 12004KT 9999 FEW020 SCT040
         BECMG 2800/2802 18007KT
         TEMPO 2804/2807 TS FEW015 SCT025 FEW025CB BKN035
         BECMG 2807/2809 06005KT
         BECMG 2821/2900 18005KT
RJOT 272309Z 2800/2906 35005KT 9999 FEW009 BKN025
         TEMPO 2805/2808 TS FEW003 SCT009 FEW020CB BKN025
         BECMG 2809/2811 18004KT
         BECMG 2900/2903 03005KT
RJOA 272336Z 2800/2906 22005KT 9999 FEW008 SCT015 BKN025
         TEMPO 2800/2802 4000 BR BCFG FEW000 BKN008 BKN012
         TEMPO 2804/2807 TS FEW001 SCT008 FEW020CB BKN025

本日は晴れ、先々週から耐空検査の整備中。
やっと、3機とも翼を組み整備後半戦に突入ってところでしょうか。

解散    17:30

本日のフライトはありません。

    << 戻る || ホームページ || 最新の掲示板へ